createdAt,value
2023-01-09T00:00:52.524Z,95949.06
2023-01-09T00:11:00.297Z,95942.47
2023-01-09T00:21:04.851Z,95937.50
2023-01-09T00:31:08.649Z,95943.78
2023-01-09T00:41:15.945Z,95947.97
2023-01-09T00:51:20.412Z,95938.47
2023-01-09T01:01:22.826Z,95938.22
2023-01-09T01:11:25.161Z,95924.47
2023-01-09T01:21:27.669Z,95906.91
2023-01-09T01:31:29.848Z,95880.38
2023-01-09T01:41:32.118Z,95866.25
2023-01-09T01:51:39.098Z,95843.69
2023-01-09T02:01:44.447Z,95845.41
2023-01-09T02:11:48.880Z,95818.31
2023-01-09T02:22:36.018Z,95799.19
2023-01-09T02:32:43.818Z,95764.34
2023-01-09T02:42:48.458Z,95742.75
2023-01-09T02:52:59.402Z,95760.66
2023-01-09T03:03:10.206Z,95757.97
2023-01-09T03:13:18.473Z,95738.28
2023-01-09T03:23:20.727Z,95732.38
2023-01-09T03:33:22.960Z,95716.06
2023-01-09T03:43:25.139Z,95688.16
2023-01-09T03:53:28.640Z,95669.97
2023-01-09T04:03:30.983Z,95680.94
2023-01-09T04:13:33.346Z,95673.22
2023-01-09T04:23:35.534Z,95643.75
2023-01-09T04:33:37.759Z,95659.03
2023-01-09T04:43:42.319Z,95652.59
2023-01-09T04:53:44.523Z,95640.81
2023-01-09T05:03:46.790Z,95625.47
2023-01-09T05:13:48.953Z,95611.28
2023-01-09T05:23:51.207Z,95622.00
2023-01-09T05:33:53.763Z,95621.50
2023-01-09T05:43:55.966Z,95586.31
2023-01-09T05:53:59.184Z,95595.91
2023-01-09T06:04:01.438Z,95614.19
2023-01-09T06:14:03.675Z,95583.09
2023-01-09T06:24:06.422Z,95564.84
2023-01-09T06:34:09.072Z,95575.09
2023-01-09T06:44:11.416Z,95550.09
2023-01-09T06:54:13.685Z,95549.81
2023-01-09T07:04:17.614Z,95559.84
2023-01-09T07:14:20.117Z,95556.41
2023-01-09T07:24:22.333Z,95575.34
2023-01-09T07:34:24.546Z,95575.81
2023-01-09T07:44:27.144Z,95592.50
2023-01-09T07:54:29.410Z,95571.19
2023-01-09T08:04:31.838Z,95567.09
2023-01-09T08:14:34.297Z,95562.38
2023-01-09T08:24:36.861Z,95562.63
2023-01-09T08:34:39.099Z,95576.09
2023-01-09T08:45:00.029Z,95583.88
2023-01-09T08:55:02.241Z,95593.69
2023-01-09T09:05:04.772Z,95592.38
2023-01-09T09:15:13.636Z,95618.00
2023-01-09T09:25:17.071Z,95631.16
2023-01-09T09:35:23.797Z,95640.16
2023-01-09T09:45:59.535Z,95651.59
2023-01-09T09:56:02.826Z,95629.91
2023-01-09T10:06:10.941Z,95654.00
2023-01-09T10:16:35.534Z,95650.09
2023-01-09T10:26:46.265Z,95641.16
2023-01-09T10:37:00.194Z,95645.34
2023-01-09T10:47:09.022Z,95637.16
2023-01-09T10:57:16.388Z,95651.59
2023-01-09T11:07:20.910Z,95668.41
2023-01-09T11:17:27.174Z,95652.72
2023-01-09T11:27:29.523Z,95674.75
2023-01-09T11:37:32.796Z,95690.69
2023-01-09T11:47:41.011Z,95681.38
2023-01-09T11:57:43.292Z,95688.19
2023-01-09T12:07:57.791Z,95705.81
2023-01-09T12:18:11.655Z,95699.31
2023-01-09T12:28:13.808Z,95695.50
2023-01-09T12:38:37.282Z,95720.72
2023-01-09T12:49:09.341Z,95719.47
2023-01-09T12:59:33.228Z,95745.28
2023-01-09T13:09:53.478Z,95749.06
2023-01-09T13:19:55.857Z,95754.56
2023-01-09T13:30:09.000Z,95784.44
2023-01-09T13:40:20.064Z,95803.16
2023-01-09T13:50:26.573Z,95828.81
2023-01-09T14:00:28.803Z,95838.06
2023-01-09T14:10:39.777Z,95873.94
2023-01-09T14:20:45.993Z,95877.22
2023-01-09T14:30:54.447Z,95884.44
2023-01-09T14:41:17.015Z,95897.63
2023-01-09T14:51:22.268Z,95927.03
2023-01-09T15:01:27.490Z,95931.25
2023-01-09T15:11:31.331Z,95934.88
2023-01-09T15:21:33.678Z,95951.19
2023-01-09T15:31:39.133Z,95943.28
2023-01-09T15:42:00.102Z,95947.16
2023-01-09T15:52:03.182Z,95941.06
2023-01-09T16:02:31.139Z,95947.28
2023-01-09T16:12:33.553Z,95966.41
2023-01-09T16:22:37.021Z,95985.81
2023-01-09T16:32:51.554Z,95998.47
2023-01-09T16:43:01.557Z,96010.03
2023-01-09T16:53:14.590Z,96030.75
2023-01-09T17:03:17.775Z,96025.88
2023-01-09T17:13:20.497Z,96031.78
2023-01-09T17:23:25.931Z,96036.63
2023-01-09T17:33:28.457Z,96047.91
2023-01-09T17:43:32.237Z,96059.22
2023-01-09T17:53:34.449Z,96062.94
2023-01-09T18:03:36.696Z,96085.28
2023-01-09T18:13:38.940Z,96084.75
2023-01-09T18:23:41.234Z,96076.38
2023-01-09T18:33:46.880Z,96079.59
2023-01-09T18:43:54.044Z,96074.13
2023-01-09T18:53:57.321Z,96095.59
2023-01-09T19:04:00.123Z,96121.66
2023-01-09T19:14:02.642Z,96115.41
2023-01-09T19:24:05.295Z,96133.59
2023-01-09T19:34:08.044Z,96151.03
2023-01-09T19:44:11.000Z,96161.00
2023-01-09T19:54:13.250Z,96145.84
2023-01-09T20:04:17.475Z,96150.34
2023-01-09T20:14:20.973Z,96168.47
2023-01-09T20:24:23.271Z,96174.44
2023-01-09T20:34:25.485Z,96189.53
2023-01-09T20:44:27.692Z,96197.16
2023-01-09T20:54:29.944Z,96221.66
2023-01-09T21:04:32.313Z,96233.25
2023-01-09T21:14:36.010Z,96234.91
2023-01-09T21:24:38.368Z,96244.28
2023-01-09T21:40:13.905Z,96249.50
2023-01-09T21:50:17.462Z,96262.59
2023-01-09T22:00:20.152Z,96292.53
2023-01-09T22:10:22.580Z,96297.69
2023-01-09T22:20:24.866Z,96310.34
2023-01-09T22:30:27.172Z,96325.84
2023-01-09T22:40:29.417Z,96340.72
2023-01-09T22:50:31.628Z,96354.66
2023-01-09T23:00:33.911Z,96360.84
2023-01-09T23:10:36.216Z,96369.78
2023-01-09T23:20:38.516Z,96391.72
2023-01-09T23:30:40.765Z,96402.41
2023-01-09T23:40:43.183Z,96409.59
2023-01-09T23:50:53.297Z,96405.94
